createdAt,value
2023-01-27T00:00:33.249Z,98379.19
2023-01-27T00:02:59.823Z,98386.34
2023-01-27T00:05:26.115Z,98380.00
2023-01-27T00:07:52.402Z,98386.72
2023-01-27T00:10:20.286Z,98383.56
2023-01-27T00:12:47.518Z,98386.75
2023-01-27T00:15:15.332Z,98385.38
2023-01-27T00:17:42.403Z,98372.28
2023-01-27T00:20:10.142Z,98362.09
2023-01-27T00:22:36.504Z,98361.69
2023-01-27T00:25:02.950Z,98369.25
2023-01-27T00:27:29.330Z,98364.06
2023-01-27T00:29:55.719Z,98362.25
2023-01-27T00:32:22.065Z,98367.50
2023-01-27T00:34:48.540Z,98363.34
2023-01-27T00:37:15.088Z,98363.19
2023-01-27T00:39:41.859Z,98355.78
2023-01-27T00:42:08.138Z,98363.75
2023-01-27T00:44:34.586Z,98365.53
2023-01-27T00:47:00.955Z,98366.78
2023-01-27T00:49:27.264Z,98377.25
2023-01-27T00:51:53.602Z,98375.19
2023-01-27T00:54:19.919Z,98373.94
2023-01-27T00:56:46.361Z,98383.03
2023-01-27T00:59:12.745Z,98377.69
2023-01-27T01:01:39.064Z,98384.13
2023-01-27T01:04:05.514Z,98373.81
2023-01-27T01:06:32.090Z,98367.91
2023-01-27T01:08:58.402Z,98364.03
2023-01-27T01:11:25.400Z,98373.94
2023-01-27T01:13:53.797Z,98378.22
2023-01-27T01:16:23.766Z,98385.00
2023-01-27T01:18:50.090Z,98382.63
2023-01-27T01:21:16.893Z,98386.09
2023-01-27T01:23:45.108Z,98388.16
2023-01-27T01:26:12.959Z,98385.81
2023-01-27T01:28:39.451Z,98384.56
2023-01-27T01:31:07.883Z,98379.88
2023-01-27T01:33:34.323Z,98373.94
2023-01-27T01:36:09.797Z,98378.34
2023-01-27T01:38:36.164Z,98386.88
2023-01-27T01:41:02.850Z,98379.84
2023-01-27T01:43:29.259Z,98385.22
2023-01-27T01:45:57.883Z,98391.00
2023-01-27T01:48:40.655Z,98377.66
2023-01-27T01:51:11.054Z,98368.97
2023-01-27T01:54:01.844Z,98378.34
2023-01-27T01:56:37.436Z,98387.03
2023-01-27T01:59:13.565Z,98389.25
2023-01-27T02:01:39.913Z,98377.25
2023-01-27T02:04:13.704Z,98385.41
2023-01-27T02:06:52.476Z,98359.47
2023-01-27T02:09:21.176Z,98365.38
2023-01-27T02:11:47.488Z,98364.59
2023-01-27T02:14:16.318Z,98364.06
2023-01-27T02:16:42.947Z,98366.38
2023-01-27T02:19:19.090Z,98370.38
2023-01-27T02:21:48.196Z,98376.16
2023-01-27T02:24:15.203Z,98367.59
2023-01-27T02:26:44.823Z,98367.50
2023-01-27T02:29:15.660Z,98363.75
2023-01-27T02:31:42.827Z,98368.56
2023-01-27T02:34:12.401Z,98366.09
2023-01-27T02:37:01.672Z,98368.84
2023-01-27T02:39:34.488Z,98363.06
2023-01-27T02:42:02.702Z,98371.75
2023-01-27T02:44:28.998Z,98374.91
2023-01-27T02:46:55.376Z,98364.59
2023-01-27T02:49:21.649Z,98359.50
2023-01-27T02:51:47.954Z,98372.97
2023-01-27T02:54:14.391Z,98368.44
2023-01-27T02:56:40.779Z,98371.47
2023-01-27T02:59:07.069Z,98366.91
2023-01-27T03:01:33.407Z,98377.81
2023-01-27T03:03:59.843Z,98382.22
2023-01-27T03:06:26.206Z,98383.88
2023-01-27T03:08:52.473Z,98388.28
2023-01-27T03:11:18.790Z,98387.31
2023-01-27T03:13:45.164Z,98381.28
2023-01-27T03:16:14.283Z,98377.41
2023-01-27T03:18:40.940Z,98375.03
2023-01-27T03:21:07.443Z,98374.78
2023-01-27T03:23:34.092Z,98373.38
2023-01-27T03:26:02.284Z,98364.81
2023-01-27T03:28:28.613Z,98363.44
2023-01-27T03:31:07.482Z,98367.88
2023-01-27T03:33:34.795Z,98361.25
2023-01-27T03:36:02.209Z,98356.84
2023-01-27T03:38:28.497Z,98358.66
2023-01-27T03:40:54.767Z,98360.03
2023-01-27T03:43:21.173Z,98365.28
2023-01-27T03:45:49.134Z,98364.44
2023-01-27T03:48:15.433Z,98368.44
2023-01-27T03:50:41.724Z,98375.19
2023-01-27T03:53:07.903Z,98370.94
2023-01-27T03:55:36.234Z,98368.44
2023-01-27T03:58:03.241Z,98378.38
2023-01-27T04:00:29.508Z,98372.84
2023-01-27T04:02:55.854Z,98372.28
2023-01-27T04:05:22.268Z,98367.59
2023-01-27T04:07:48.522Z,98367.22
2023-01-27T04:10:15.075Z,98376.03
2023-01-27T04:12:41.432Z,98372.44
2023-01-27T04:15:08.215Z,98367.59
2023-01-27T04:17:34.576Z,98367.19
2023-01-27T04:20:00.877Z,98365.00
2023-01-27T04:22:27.168Z,98365.41
2023-01-27T04:24:53.518Z,98364.03
2023-01-27T04:27:19.900Z,98370.25
2023-01-27T04:29:46.271Z,98358.94
2023-01-27T04:32:13.376Z,98369.69
2023-01-27T04:34:40.700Z,98378.22
2023-01-27T04:37:08.531Z,98383.19
2023-01-27T04:39:35.609Z,98386.22
2023-01-27T04:42:02.035Z,98389.94
2023-01-27T04:44:28.360Z,98396.25
2023-01-27T04:46:54.758Z,98397.75
2023-01-27T04:49:21.177Z,98393.63
2023-01-27T04:51:47.639Z,98389.63
2023-01-27T04:54:14.113Z,98389.09
2023-01-27T04:56:43.052Z,98385.63
2023-01-27T04:59:12.626Z,98385.22
2023-01-27T05:01:39.088Z,98375.72
2023-01-27T05:04:05.392Z,98383.72
2023-01-27T05:06:31.777Z,98383.03
2023-01-27T05:08:58.144Z,98379.88
2023-01-27T05:11:24.466Z,98388.56
2023-01-27T05:13:50.944Z,98385.78
2023-01-27T05:16:20.426Z,98384.69
2023-01-27T05:18:49.094Z,98381.66
2023-01-27T05:21:18.373Z,98383.19
2023-01-27T05:23:44.884Z,98388.16
2023-01-27T05:26:20.539Z,98389.13
2023-01-27T05:28:48.312Z,98385.00
2023-01-27T05:31:17.655Z,98393.09
2023-01-27T05:33:45.091Z,98397.66
2023-01-27T05:36:13.785Z,98399.84
2023-01-27T05:38:40.888Z,98393.78
2023-01-27T05:41:08.685Z,98403.19
2023-01-27T05:43:36.931Z,98414.31
2023-01-27T05:46:13.680Z,98420.38
2023-01-27T05:48:45.403Z,98425.19
2023-01-27T05:51:14.807Z,98430.72
2023-01-27T05:53:41.443Z,98433.06
2023-01-27T05:56:10.374Z,98432.34
2023-01-27T05:58:37.436Z,98428.09
2023-01-27T06:01:13.687Z,98433.06
2023-01-27T06:03:40.599Z,98430.16
2023-01-27T06:06:08.389Z,98433.22
2023-01-27T06:08:35.794Z,98422.31
2023-01-27T06:11:02.926Z,98433.34
2023-01-27T06:13:29.582Z,98432.81
2023-01-27T06:15:55.963Z,98433.75
2023-01-27T06:18:23.701Z,98442.28
2023-01-27T06:20:50.324Z,98438.16
2023-01-27T06:23:17.444Z,98446.16
2023-01-27T06:25:48.120Z,98444.22
2023-01-27T06:28:28.247Z,98453.75
2023-01-27T06:30:56.415Z,98454.00
2023-01-27T06:33:23.272Z,98456.34
2023-01-27T06:35:49.541Z,98463.94
2023-01-27T06:38:15.810Z,98465.03
2023-01-27T06:40:42.309Z,98473.56
2023-01-27T06:43:13.085Z,98482.53
2023-01-27T06:45:39.533Z,98469.84
2023-01-27T06:48:06.026Z,98479.63
2023-01-27T06:50:32.396Z,98477.69
2023-01-27T06:53:04.028Z,98469.69
2023-01-27T06:55:30.914Z,98476.47
2023-01-27T06:57:57.224Z,98474.53
2023-01-27T07:00:23.576Z,98484.06
2023-01-27T07:02:49.899Z,98486.13
2023-01-27T07:05:16.585Z,98483.34
2023-01-27T07:07:42.848Z,98476.47
2023-01-27T07:10:09.668Z,98472.72
2023-01-27T07:12:35.955Z,98475.06
2023-01-27T07:15:02.232Z,98480.84
2023-01-27T07:17:28.529Z,98476.56
2023-01-27T07:19:54.804Z,98478.38
2023-01-27T07:22:21.154Z,98485.25
2023-01-27T07:24:47.566Z,98484.72
2023-01-27T07:27:13.849Z,98493.84
2023-01-27T07:29:40.187Z,98496.44
2023-01-27T07:32:07.025Z,98500.03
2023-01-27T07:34:33.368Z,98491.59
2023-01-27T07:36:59.688Z,98494.09
2023-01-27T07:39:25.951Z,98501.94
2023-01-27T07:41:52.586Z,98505.22
2023-01-27T07:44:18.858Z,98501.25
2023-01-27T07:46:45.170Z,98502.19
2023-01-27T07:49:11.450Z,98505.19
2023-01-27T07:51:38.216Z,98504.38
2023-01-27T07:54:05.571Z,98508.88
2023-01-27T07:56:31.840Z,98512.19
2023-01-27T07:58:58.317Z,98515.84
2023-01-27T08:01:24.741Z,98527.53
2023-01-27T08:03:51.165Z,98528.41
2023-01-27T08:06:17.631Z,98531.31
2023-01-27T08:08:44.190Z,98525.91
2023-01-27T08:11:13.390Z,98522.91
2023-01-27T08:13:40.102Z,98535.59
2023-01-27T08:16:10.173Z,98527.31
2023-01-27T08:18:36.965Z,98527.75
2023-01-27T08:21:05.620Z,98518.44
2023-01-27T08:23:33.465Z,98523.69
2023-01-27T08:26:03.156Z,98515.19
2023-01-27T08:28:31.308Z,98514.34
2023-01-27T08:31:15.045Z,98511.94
2023-01-27T08:33:42.637Z,98502.56
2023-01-27T08:36:12.325Z,98513.16
2023-01-27T08:38:39.230Z,98520.34
2023-01-27T08:41:07.987Z,98524.09
2023-01-27T08:43:34.313Z,98529.06
2023-01-27T08:46:00.918Z,98526.72
2023-01-27T08:48:28.687Z,98532.50
2023-01-27T08:50:55.909Z,98523.47
2023-01-27T08:53:23.575Z,98527.59
2023-01-27T08:55:50.256Z,98517.31
2023-01-27T08:58:17.251Z,98521.72
2023-01-27T09:00:43.671Z,98518.09
2023-01-27T09:03:09.958Z,98516.66
2023-01-27T09:05:37.407Z,98531.97
2023-01-27T09:08:04.712Z,98529.59
2023-01-27T09:10:31.005Z,98526.97
2023-01-27T09:12:57.811Z,98531.56
2023-01-27T09:15:24.127Z,98524.72
2023-01-27T09:17:50.770Z,98521.56
2023-01-27T09:20:17.283Z,98518.25
2023-01-27T09:22:43.636Z,98531.22
2023-01-27T09:25:15.525Z,98532.16
2023-01-27T09:27:41.964Z,98536.28
2023-01-27T09:30:10.788Z,98537.25
2023-01-27T09:32:37.461Z,98543.72
2023-01-27T09:35:04.114Z,98541.91
2023-01-27T09:37:33.785Z,98550.28
2023-01-27T09:40:09.282Z,98566.16
2023-01-27T09:43:01.567Z,98560.69
2023-01-27T09:45:30.545Z,98555.88
2023-01-27T09:48:21.005Z,98551.50
2023-01-27T09:50:57.658Z,98555.75
2023-01-27T09:53:42.909Z,98562.13
2023-01-27T09:56:28.119Z,98560.13
2023-01-27T09:59:33.014Z,98561.88
2023-01-27T10:02:17.677Z,98563.06
2023-01-27T10:04:49.748Z,98559.03
2023-01-27T10:07:40.719Z,98560.72
2023-01-27T10:10:38.090Z,98560.75
2023-01-27T10:13:20.909Z,98563.06
2023-01-27T10:16:33.896Z,98565.09
2023-01-27T10:19:39.984Z,98562.63
2023-01-27T10:22:24.375Z,98559.16
2023-01-27T10:24:59.015Z,98564.72
2023-01-27T10:27:28.501Z,98565.72
2023-01-27T10:30:08.135Z,98568.91
2023-01-27T10:32:45.678Z,98571.28
2023-01-27T10:35:23.062Z,98563.53
2023-01-27T10:38:19.367Z,98563.66
2023-01-27T10:40:51.828Z,98572.22
2023-01-27T10:44:06.152Z,98565.47
2023-01-27T10:46:52.055Z,98566.09
2023-01-27T10:50:00.105Z,98568.88
2023-01-27T10:52:41.321Z,98568.09
2023-01-27T10:55:16.957Z,98566.66
2023-01-27T10:57:53.209Z,98562.16
2023-01-27T11:03:25.541Z,98559.56
2023-01-27T11:06:07.138Z,98555.13
2023-01-27T11:08:36.427Z,98556.75
2023-01-27T11:11:07.212Z,98553.59
2023-01-27T11:13:33.941Z,98551.81
2023-01-27T11:16:01.325Z,98539.94
2023-01-27T11:18:30.292Z,98543.41
2023-01-27T11:21:04.824Z,98539.63
2023-01-27T11:23:34.758Z,98543.19
2023-01-27T11:26:11.321Z,98541.66
2023-01-27T11:28:42.467Z,98547.03
2023-01-27T11:31:38.131Z,98539.34
2023-01-27T11:34:11.776Z,98547.53
2023-01-27T11:36:38.295Z,98545.19
2023-01-27T11:39:04.634Z,98544.75
2023-01-27T11:41:37.990Z,98546.66
2023-01-27T11:44:12.069Z,98542.38
2023-01-27T11:46:38.460Z,98530.44
2023-01-27T11:49:04.756Z,98541.00
2023-01-27T11:51:39.615Z,98538.72
2023-01-27T11:54:17.603Z,98533.16
2023-01-27T11:56:47.534Z,98533.44
2023-01-27T11:59:16.399Z,98536.44
2023-01-27T12:01:52.635Z,98529.53
2023-01-27T12:04:43.796Z,98521.50
2023-01-27T12:07:17.448Z,98523.44
2023-01-27T12:09:43.873Z,98519.03
2023-01-27T12:12:15.989Z,98508.25
2023-01-27T12:14:56.661Z,98503.97
2023-01-27T12:17:37.410Z,98505.28
2023-01-27T12:20:26.485Z,98502.13
2023-01-27T12:22:55.348Z,98487.47
2023-01-27T12:25:26.348Z,98490.47
2023-01-27T12:27:56.496Z,98487.34
2023-01-27T12:30:26.191Z,98486.28
2023-01-27T12:32:53.880Z,98484.56
2023-01-27T12:35:26.987Z,98483.19
2023-01-27T12:38:24.126Z,98477.53
2023-01-27T12:41:06.176Z,98489.91
2023-01-27T12:43:49.117Z,98495.00
2023-01-27T12:46:26.795Z,98487.44
2023-01-27T12:49:13.443Z,98484.69
2023-01-27T12:51:43.007Z,98495.16
2023-01-27T12:54:17.097Z,98492.16
2023-01-27T12:56:43.745Z,98485.78
2023-01-27T12:59:15.638Z,98490.03
2023-01-27T13:01:42.161Z,98477.88
2023-01-27T13:04:20.449Z,98486.22
2023-01-27T13:06:57.849Z,98488.84
2023-01-27T13:09:26.475Z,98492.22
2023-01-27T13:11:55.610Z,98494.63
2023-01-27T13:14:21.994Z,98492.31
2023-01-27T13:16:55.493Z,98497.72
2023-01-27T13:19:32.541Z,98495.09
2023-01-27T13:21:59.198Z,98496.66
2023-01-27T13:24:45.946Z,98493.94
2023-01-27T13:27:17.228Z,98500.00
2023-01-27T13:29:54.498Z,98495.75
2023-01-27T13:32:25.904Z,98504.38
2023-01-27T13:35:06.649Z,98508.34
2023-01-27T13:37:43.705Z,98515.19
2023-01-27T13:40:22.579Z,98517.16
2023-01-27T13:42:55.027Z,98507.78
2023-01-27T13:45:24.853Z,98506.34
2023-01-27T13:48:01.902Z,98512.94
2023-01-27T13:50:35.980Z,98511.22
2023-01-27T13:53:03.836Z,98512.19
2023-01-27T13:55:47.298Z,98507.69
2023-01-27T13:58:33.820Z,98510.69
2023-01-27T14:01:28.640Z,98517.53
2023-01-27T14:04:26.463Z,98511.34
2023-01-27T14:07:16.882Z,98521.44
2023-01-27T14:10:07.256Z,98530.22
2023-01-27T14:12:33.590Z,98522.84
2023-01-27T14:15:41.699Z,98524.50
2023-01-27T14:18:20.034Z,98525.41
2023-01-27T14:20:52.402Z,98522.19
2023-01-27T14:23:58.015Z,98523.19
2023-01-27T14:26:34.023Z,98531.38
2023-01-27T14:29:15.303Z,98524.53
2023-01-27T14:31:51.626Z,98532.69
2023-01-27T14:34:48.835Z,98517.44
2023-01-27T14:37:24.810Z,98523.13
2023-01-27T14:40:15.754Z,98522.03
2023-01-27T14:43:04.517Z,98528.69
2023-01-27T14:45:47.718Z,98533.09
2023-01-27T14:48:58.357Z,98534.16
2023-01-27T14:51:47.253Z,98535.97
2023-01-27T14:54:34.081Z,98534.69
2023-01-27T14:57:05.881Z,98532.59
2023-01-27T14:59:49.718Z,98544.44
2023-01-27T15:02:40.783Z,98544.00
2023-01-27T15:05:36.730Z,98544.97
2023-01-27T15:08:18.254Z,98542.38
2023-01-27T15:11:29.358Z,98535.25
2023-01-27T15:14:29.472Z,98540.19
2023-01-27T15:17:17.654Z,98549.69
2023-01-27T15:20:12.333Z,98544.13
2023-01-27T15:22:52.082Z,98543.66
2023-01-27T15:25:52.998Z,98544.91
2023-01-27T15:28:23.769Z,98550.69
2023-01-27T15:31:15.050Z,98554.13
2023-01-27T15:33:45.777Z,98552.72
2023-01-27T15:36:27.232Z,98557.31
2023-01-27T15:39:08.753Z,98561.28
2023-01-27T15:41:36.672Z,98554.94
2023-01-27T15:44:25.659Z,98572.50
2023-01-27T15:46:54.405Z,98574.16
2023-01-27T15:49:30.440Z,98570.88
2023-01-27T15:52:10.890Z,98569.00
2023-01-27T15:54:41.304Z,98578.81
2023-01-27T15:57:24.956Z,98580.84
2023-01-27T15:59:58.709Z,98575.91
2023-01-27T16:02:29.538Z,98580.91
2023-01-27T16:05:24.212Z,98583.47
2023-01-27T16:07:54.410Z,98579.34
2023-01-27T16:10:24.473Z,98591.13
2023-01-27T16:13:10.836Z,98592.63
2023-01-27T16:15:37.290Z,98593.22
2023-01-27T16:18:06.769Z,98603.31
2023-01-27T16:20:50.090Z,98610.38
2023-01-27T16:23:44.746Z,98614.41
2023-01-27T16:26:35.192Z,98617.84
2023-01-27T16:29:41.488Z,98609.94
2023-01-27T16:32:15.060Z,98611.97
2023-01-27T16:34:45.848Z,98609.22
2023-01-27T16:37:27.915Z,98604.31
2023-01-27T16:40:01.058Z,98606.50
2023-01-27T16:42:36.096Z,98609.78
2023-01-27T16:45:15.802Z,98605.09
2023-01-27T16:47:49.446Z,98607.91
2023-01-27T16:50:31.441Z,98610.53
2023-01-27T16:52:58.330Z,98610.53
2023-01-27T16:55:24.851Z,98613.69
2023-01-27T16:57:52.699Z,98615.78
2023-01-27T17:00:20.711Z,98616.34
2023-01-27T17:02:48.504Z,98616.34
2023-01-27T17:05:18.228Z,98626.69
2023-01-27T17:08:22.029Z,98618.97
2023-01-27T17:10:54.885Z,98622.13
2023-01-27T17:13:31.688Z,98624.22
2023-01-27T17:16:00.503Z,98630.44
2023-01-27T17:18:30.092Z,98631.94
2023-01-27T17:20:57.987Z,98623.94
2023-01-27T17:23:34.346Z,98639.69
2023-01-27T17:26:16.195Z,98625.06
2023-01-27T17:28:46.087Z,98633.31
2023-01-27T17:31:17.818Z,98639.13
2023-01-27T17:33:48.394Z,98643.03
2023-01-27T17:36:14.661Z,98646.91
2023-01-27T17:38:47.459Z,98652.00
2023-01-27T17:41:27.651Z,98639.31
2023-01-27T17:43:54.647Z,98649.53
2023-01-27T17:46:23.860Z,98651.06
2023-01-27T17:48:53.940Z,98647.03
2023-01-27T17:51:24.165Z,98647.88
2023-01-27T17:53:52.343Z,98650.22
2023-01-27T17:56:27.074Z,98640.41
2023-01-27T17:58:57.870Z,98647.59
2023-01-27T18:01:24.244Z,98648.13
2023-01-27T18:03:55.025Z,98647.28
2023-01-27T18:06:25.007Z,98655.59
2023-01-27T18:08:54.391Z,98657.94
2023-01-27T18:11:24.206Z,98657.66
2023-01-27T18:13:54.075Z,98651.69
2023-01-27T18:16:23.318Z,98659.00
2023-01-27T18:18:50.518Z,98656.81
2023-01-27T18:21:25.569Z,98663.03
2023-01-27T18:23:57.795Z,98661.94
2023-01-27T18:26:31.292Z,98664.66
2023-01-27T18:29:01.125Z,98666.88
2023-01-27T18:31:49.109Z,98669.22
2023-01-27T18:34:15.393Z,98670.06
2023-01-27T18:37:04.887Z,98670.50
2023-01-27T18:39:37.497Z,98674.06
2023-01-27T18:42:12.762Z,98680.03
2023-01-27T18:44:39.114Z,98677.00
2023-01-27T18:47:15.068Z,98684.06
2023-01-27T18:49:41.421Z,98681.44
2023-01-27T18:52:14.796Z,98689.16
2023-01-27T18:54:41.262Z,98678.91
2023-01-27T18:57:07.609Z,98680.53
2023-01-27T18:59:33.912Z,98678.53
2023-01-27T19:02:00.595Z,98673.56
2023-01-27T19:04:27.213Z,98672.59
2023-01-27T19:06:53.495Z,98678.31
2023-01-27T19:09:19.801Z,98676.81
2023-01-27T19:11:46.191Z,98681.94
2023-01-27T19:14:12.488Z,98678.63
2023-01-27T19:16:38.934Z,98678.75
2023-01-27T19:19:10.243Z,98684.44
2023-01-27T19:21:36.688Z,98683.34
2023-01-27T19:24:03.119Z,98681.53
2023-01-27T19:26:29.411Z,98677.66
2023-01-27T19:28:58.232Z,98681.41
2023-01-27T19:31:24.790Z,98682.78
2023-01-27T19:33:51.196Z,98682.09
2023-01-27T19:36:22.520Z,98690.78
2023-01-27T19:39:08.543Z,98696.72
2023-01-27T19:41:35.150Z,98696.44
2023-01-27T19:44:01.487Z,98703.19
2023-01-27T19:46:27.841Z,98708.03
2023-01-27T19:48:54.143Z,98710.94
2023-01-27T19:51:20.473Z,98712.19
2023-01-27T19:53:47.062Z,98722.28
2023-01-27T19:56:19.342Z,98724.34
2023-01-27T19:58:47.954Z,98728.47
2023-01-27T20:01:14.334Z,98735.94
2023-01-27T20:03:40.664Z,98734.69
2023-01-27T20:06:25.621Z,98724.63
2023-01-27T20:08:53.620Z,98719.38
2023-01-27T20:11:29.191Z,98727.78
2023-01-27T20:13:55.645Z,98725.56
2023-01-27T20:16:22.955Z,98729.28
2023-01-27T20:18:49.280Z,98730.09
2023-01-27T20:21:15.693Z,98738.28
2023-01-27T20:23:42.054Z,98732.47
2023-01-27T20:26:13.390Z,98727.91
2023-01-27T20:28:39.808Z,98733.31
2023-01-27T20:31:18.276Z,98727.91
2023-01-27T20:33:45.403Z,98734.53
2023-01-27T20:36:14.109Z,98733.69
2023-01-27T20:38:40.649Z,98736.19
2023-01-27T20:41:08.425Z,98730.69
2023-01-27T20:43:35.892Z,98732.75
2023-01-27T20:46:07.902Z,98732.75
2023-01-27T20:48:34.740Z,98730.66
2023-01-27T20:51:03.954Z,98729.09
2023-01-27T20:53:33.391Z,98730.50
2023-01-27T20:56:00.177Z,98727.63
2023-01-27T20:58:27.629Z,98725.84
2023-01-27T21:00:54.323Z,98723.88
2023-01-27T21:03:20.649Z,98733.41
2023-01-27T21:05:47.008Z,98727.06
2023-01-27T21:08:13.460Z,98722.50
2023-01-27T21:10:40.016Z,98728.81
2023-01-27T21:13:06.563Z,98731.72
2023-01-27T21:15:32.928Z,98729.09
2023-01-27T21:17:59.236Z,98727.31
2023-01-27T21:20:25.583Z,98730.22
2023-01-27T21:22:51.881Z,98734.59
2023-01-27T21:25:18.396Z,98738.88
2023-01-27T21:27:45.214Z,98740.00
2023-01-27T21:30:12.467Z,98743.59
2023-01-27T21:32:38.732Z,98735.03
2023-01-27T21:35:05.752Z,98734.59
2023-01-27T21:37:32.047Z,98737.97
2023-01-27T21:39:58.335Z,98738.78
2023-01-27T21:42:24.777Z,98734.22
2023-01-27T21:44:51.071Z,98732.56
2023-01-27T21:47:18.972Z,98731.72
2023-01-27T21:49:46.039Z,98733.53
2023-01-27T21:52:12.456Z,98726.19
2023-01-27T21:54:38.905Z,98723.84
2023-01-27T21:57:05.211Z,98728.03
2023-01-27T21:59:31.671Z,98718.06
2023-01-27T22:01:57.927Z,98718.50
2023-01-27T22:04:24.267Z,98725.25
2023-01-27T22:06:50.584Z,98721.38
2023-01-27T22:09:16.934Z,98724.81
2023-01-27T22:11:43.226Z,98726.34
2023-01-27T22:14:09.512Z,98721.53
2023-01-27T22:16:35.878Z,98729.41
2023-01-27T22:19:02.184Z,98729.53
2023-01-27T22:21:28.777Z,98736.31
2023-01-27T22:23:55.152Z,98729.78
2023-01-27T22:26:21.425Z,98742.78
2023-01-27T22:28:47.740Z,98742.22
2023-01-27T22:31:14.035Z,98742.78
2023-01-27T22:33:40.318Z,98740.81
2023-01-27T22:36:07.073Z,98743.31
2023-01-27T22:38:37.987Z,98748.13
2023-01-27T22:41:04.536Z,98744.25
2023-01-27T22:43:30.959Z,98738.44
2023-01-27T22:46:01.823Z,98750.16
2023-01-27T22:48:28.396Z,98742.13
2023-01-27T22:50:55.027Z,98739.81
2023-01-27T22:53:21.494Z,98737.84
2023-01-27T22:55:56.299Z,98725.97
2023-01-27T22:58:22.678Z,98742.56
2023-01-27T23:00:48.951Z,98732.34
2023-01-27T23:03:15.233Z,98734.00
2023-01-27T23:05:41.581Z,98731.09
2023-01-27T23:08:07.956Z,98732.22
2023-01-27T23:10:34.611Z,98732.34
2023-01-27T23:13:01.665Z,98731.78
2023-01-27T23:15:28.038Z,98730.66
2023-01-27T23:17:54.385Z,98732.84
2023-01-27T23:20:20.742Z,98732.06
2023-01-27T23:22:47.141Z,98730.03
2023-01-27T23:25:13.958Z,98723.13
2023-01-27T23:27:41.623Z,98725.06
2023-01-27T23:30:09.690Z,98727.59
2023-01-27T23:32:37.431Z,98724.97
2023-01-27T23:35:05.071Z,98721.63
2023-01-27T23:37:31.606Z,98718.59
2023-01-27T23:39:58.033Z,98719.44
2023-01-27T23:42:24.382Z,98716.81
2023-01-27T23:44:50.672Z,98717.34
2023-01-27T23:47:16.993Z,98715.00
2023-01-27T23:49:43.357Z,98714.06
2023-01-27T23:52:09.638Z,98724.72
2023-01-27T23:54:35.909Z,98715.72
2023-01-27T23:57:02.184Z,98720.16
2023-01-27T23:59:28.600Z,98726.78
